sensor_id;sensor_type;location;lat;lon;timestamp;temperature;humidity
19206;DHT22;59358;52.134;5.596;2023-02-23T00:01:14;8.70;99.90
19206;DHT22;59358;52.134;5.596;2023-02-23T00:03:41;8.70;99.90
19206;DHT22;59358;52.134;5.596;2023-02-23T00:06:09;8.70;99.90
19206;DHT22;59358;52.134;5.596;2023-02-23T00:08:39;8.70;99.90
19206;DHT22;59358;52.134;5.596;2023-02-23T00:11:09;8.70;99.90
19206;DHT22;59358;52.134;5.596;2023-02-23T00:13:37;8.80;99.90
19206;DHT22;59358;52.134;5.596;2023-02-23T00:16:05;8.80;99.90
19206;DHT22;59358;52.134;5.596;2023-02-23T00:18:34;8.80;99.90
19206;DHT22;59358;52.134;5.596;2023-02-23T00:21:11;8.80;99.90
19206;DHT22;59358;52.134;5.596;2023-02-23T00:23:41;8.90;99.90
19206;DHT22;59358;52.134;5.596;2023-02-23T00:26:08;8.70;99.90
19206;DHT22;59358;52.134;5.596;2023-02-23T00:28:35;8.70;99.90
19206;DHT22;59358;52.134;5.596;2023-02-23T00:31:02;8.70;99.90
19206;DHT22;59358;52.134;5.596;2023-02-23T00:33:29;8.70;99.90
19206;DHT22;59358;52.134;5.596;2023-02-23T00:36:04;8.80;99.90
19206;DHT22;59358;52.134;5.596;2023-02-23T00:38:32;8.70;99.90
19206;DHT22;59358;52.134;5.596;2023-02-23T00:41:04;8.70;99.90
19206;DHT22;59358;52.134;5.596;2023-02-23T00:43:33;8.70;99.90
19206;DHT22;59358;52.134;5.596;2023-02-23T00:46:00;8.70;99.90
19206;DHT22;59358;52.134;5.596;2023-02-23T00:48:30;8.70;99.90
19206;DHT22;59358;52.134;5.596;2023-02-23T00:50:58;8.70;99.90
19206;DHT22;59358;52.134;5.596;2023-02-23T00:53:26;8.70;99.90
19206;DHT22;59358;52.134;5.596;2023-02-23T00:55:53;8.70;99.90
19206;DHT22;59358;52.134;5.596;2023-02-23T00:58:20;8.60;99.90
19206;DHT22;59358;52.134;5.596;2023-02-23T01:00:47;8.50;99.90
19206;DHT22;59358;52.134;5.596;2023-02-23T01:03:14;8.50;99.90
19206;DHT22;59358;52.134;5.596;2023-02-23T01:05:41;8.50;99.90
19206;DHT22;59358;52.134;5.596;2023-02-23T01:08:08;8.60;99.90
19206;DHT22;59358;52.134;5.596;2023-02-23T01:10:40;8.60;99.90
19206;DHT22;59358;52.134;5.596;2023-02-23T01:13:08;8.60;99.90
19206;DHT22;59358;52.134;5.596;2023-02-23T01:15:40;8.70;99.90
19206;DHT22;59358;52.134;5.596;2023-02-23T01:18:08;8.70;99.90
19206;DHT22;59358;52.134;5.596;2023-02-23T01:20:35;8.70;99.90
19206;DHT22;59358;52.134;5.596;2023-02-23T01:23:02;8.70;99.90
19206;DHT22;59358;52.134;5.596;2023-02-23T01:25:29;8.70;99.90
19206;DHT22;59358;52.134;5.596;2023-02-23T01:27:58;8.70;99.90
19206;DHT22;59358;52.134;5.596;2023-02-23T01:30:24;8.70;99.90
19206;DHT22;59358;52.134;5.596;2023-02-23T01:32:52;8.60;99.90
19206;DHT22;59358;52.134;5.596;2023-02-23T01:35:19;8.50;99.90
19206;DHT22;59358;52.134;5.596;2023-02-23T01:37:45;8.50;99.90
19206;DHT22;59358;52.134;5.596;2023-02-23T01:40:16;8.60;99.90
19206;DHT22;59358;52.134;5.596;2023-02-23T01:42:54;8.50;99.90
19206;DHT22;59358;52.134;5.596;2023-02-23T01:45:29;8.60;99.90
19206;DHT22;59358;52.134;5.596;2023-02-23T01:47:59;8.60;99.90
19206;DHT22;59358;52.134;5.596;2023-02-23T01:50:29;8.60;99.90
19206;DHT22;59358;52.134;5.596;2023-02-23T01:52:58;8.60;99.90
19206;DHT22;59358;52.134;5.596;2023-02-23T01:55:26;8.60;99.90
19206;DHT22;59358;52.134;5.596;2023-02-23T01:57:58;8.60;99.90
19206;DHT22;59358;52.134;5.596;2023-02-23T02:00:28;8.60;99.90
19206;DHT22;59358;52.134;5.596;2023-02-23T02:02:57;8.60;99.90
19206;DHT22;59358;52.134;5.596;2023-02-23T02:05:26;8.60;99.90
19206;DHT22;59358;52.134;5.596;2023-02-23T02:07:54;8.60;99.90
19206;DHT22;59358;52.134;5.596;2023-02-23T02:10:25;8.60;99.90
19206;DHT22;59358;52.134;5.596;2023-02-23T02:13:16;8.60;99.90
19206;DHT22;59358;52.134;5.596;2023-02-23T02:22:09;8.60;99.90
19206;DHT22;59358;52.134;5.596;2023-02-23T02:25:18;8.60;99.90
19206;DHT22;59358;52.134;5.596;2023-02-23T02:28:11;8.60;99.90
19206;DHT22;59358;52.134;5.596;2023-02-23T02:34:09;8.70;99.90
19206;DHT22;59358;52.134;5.596;2023-02-23T02:37:02;8.70;99.90
19206;DHT22;59358;52.134;5.596;2023-02-23T02:39:39;8.60;99.90
19206;DHT22;59358;52.134;5.596;2023-02-23T02:42:17;8.60;99.90
19206;DHT22;59358;52.134;5.596;2023-02-23T02:44:51;8.60;99.90
19206;DHT22;59358;52.134;5.596;2023-02-23T02:47:23;8.50;99.90
19206;DHT22;59358;52.134;5.596;2023-02-23T02:49:56;8.60;99.90
19206;DHT22;59358;52.134;5.596;2023-02-23T02:52:29;8.50;99.90
19206;DHT22;59358;52.134;5.596;2023-02-23T02:55:02;8.50;99.90
19206;DHT22;59358;52.134;5.596;2023-02-23T02:57:33;8.60;99.90
19206;DHT22;59358;52.134;5.596;2023-02-23T03:00:00;8.50;99.90
19206;DHT22;59358;52.134;5.596;2023-02-23T03:02:45;8.50;99.90
19206;DHT22;59358;52.134;5.596;2023-02-23T03:05:41;8.50;99.90
19206;DHT22;59358;52.134;5.596;2023-02-23T03:08:34;8.40;99.90
19206;DHT22;59358;52.134;5.596;2023-02-23T03:11:25;8.50;99.90
19206;DHT22;59358;52.134;5.596;2023-02-23T03:14:22;8.40;99.90
19206;DHT22;59358;52.134;5.596;2023-02-23T03:17:14;8.40;99.90
19206;DHT22;59358;52.134;5.596;2023-02-23T03:20:08;8.50;99.90
19206;DHT22;59358;52.134;5.596;2023-02-23T03:22:59;8.50;99.90
19206;DHT22;59358;52.134;5.596;2023-02-23T03:25:53;8.50;99.90
19206;DHT22;59358;52.134;5.596;2023-02-23T03:28:49;8.50;99.90
19206;DHT22;59358;52.134;5.596;2023-02-23T03:31:38;8.50;99.90
19206;DHT22;59358;52.134;5.596;2023-02-23T03:34:27;8.60;99.90
19206;DHT22;59358;52.134;5.596;2023-02-23T03:37:18;8.60;99.90
19206;DHT22;59358;52.134;5.596;2023-02-23T03:40:10;8.50;99.90
19206;DHT22;59358;52.134;5.596;2023-02-23T03:42:58;8.50;99.90
19206;DHT22;59358;52.134;5.596;2023-02-23T03:45:45;8.40;99.90
19206;DHT22;59358;52.134;5.596;2023-02-23T03:48:31;8.30;99.90
19206;DHT22;59358;52.134;5.596;2023-02-23T03:51:19;8.30;99.90
19206;DHT22;59358;52.134;5.596;2023-02-23T03:54:09;8.30;99.90
19206;DHT22;59358;52.134;5.596;2023-02-23T03:56:57;8.30;99.90
19206;DHT22;59358;52.134;5.596;2023-02-23T03:59:47;8.30;99.90
19206;DHT22;59358;52.134;5.596;2023-02-23T04:02:34;8.20;99.90
19206;DHT22;59358;52.134;5.596;2023-02-23T04:05:21;8.20;99.90
19206;DHT22;59358;52.134;5.596;2023-02-23T04:08:11;8.20;99.90
19206;DHT22;59358;52.134;5.596;2023-02-23T04:11:04;8.20;99.90
19206;DHT22;59358;52.134;5.596;2023-02-23T04:13:54;8.20;99.90
19206;DHT22;59358;52.134;5.596;2023-02-23T04:16:24;8.30;99.90
19206;DHT22;59358;52.134;5.596;2023-02-23T04:18:50;8.30;99.90
19206;DHT22;59358;52.134;5.596;2023-02-23T04:21:18;8.30;99.90
19206;DHT22;59358;52.134;5.596;2023-02-23T04:23:44;8.30;99.90
19206;DHT22;59358;52.134;5.596;2023-02-23T04:26:11;8.30;99.90
19206;DHT22;59358;52.134;5.596;2023-02-23T04:28:38;8.30;99.90
19206;DHT22;59358;52.134;5.596;2023-02-23T04:31:05;8.40;99.90
19206;DHT22;59358;52.134;5.596;2023-02-23T04:33:33;8.30;99.90
19206;DHT22;59358;52.134;5.596;2023-02-23T04:36:00;8.30;99.90
19206;DHT22;59358;52.134;5.596;2023-02-23T04:38:27;8.30;99.90
19206;DHT22;59358;52.134;5.596;2023-02-23T04:40:53;8.30;99.90
19206;DHT22;59358;52.134;5.596;2023-02-23T04:43:20;8.30;99.90
19206;DHT22;59358;52.134;5.596;2023-02-23T04:45:47;8.30;99.90
19206;DHT22;59358;52.134;5.596;2023-02-23T04:48:14;8.30;99.90
19206;DHT22;59358;52.134;5.596;2023-02-23T04:50:42;8.30;99.90
19206;DHT22;59358;52.134;5.596;2023-02-23T04:53:09;8.30;99.90
19206;DHT22;59358;52.134;5.596;2023-02-23T04:55:36;8.20;99.90
19206;DHT22;59358;52.134;5.596;2023-02-23T04:58:03;8.20;99.90
19206;DHT22;59358;52.134;5.596;2023-02-23T05:00:30;8.20;99.90
19206;DHT22;59358;52.134;5.596;2023-02-23T05:02:58;8.20;99.90
19206;DHT22;59358;52.134;5.596;2023-02-23T05:05:25;8.20;99.90
19206;DHT22;59358;52.134;5.596;2023-02-23T05:07:53;8.10;99.90
19206;DHT22;59358;52.134;5.596;2023-02-23T05:10:20;8.10;99.90
19206;DHT22;59358;52.134;5.596;2023-02-23T05:12:47;8.10;99.90
19206;DHT22;59358;52.134;5.596;2023-02-23T05:15:14;8.10;99.90
19206;DHT22;59358;52.134;5.596;2023-02-23T05:17:41;8.10;99.90
19206;DHT22;59358;52.134;5.596;2023-02-23T05:20:10;8.00;99.90
19206;DHT22;59358;52.134;5.596;2023-02-23T05:22:37;8.10;99.90
19206;DHT22;59358;52.134;5.596;2023-02-23T05:25:06;8.10;99.90
19206;DHT22;59358;52.134;5.596;2023-02-23T05:27:34;8.10;99.90
19206;DHT22;59358;52.134;5.596;2023-02-23T05:30:02;8.10;99.90
19206;DHT22;59358;52.134;5.596;2023-02-23T05:32:29;8.10;99.90
19206;DHT22;59358;52.134;5.596;2023-02-23T05:34:56;8.20;99.90
19206;DHT22;59358;52.134;5.596;2023-02-23T05:37:22;8.10;99.90
19206;DHT22;59358;52.134;5.596;2023-02-23T05:39:49;8.20;99.90
19206;DHT22;59358;52.134;5.596;2023-02-23T05:42:18;8.20;99.90
19206;DHT22;59358;52.134;5.596;2023-02-23T05:44:44;8.20;99.90
19206;DHT22;59358;52.134;5.596;2023-02-23T05:47:11;8.20;99.90
19206;DHT22;59358;52.134;5.596;2023-02-23T05:49:38;8.20;99.90
19206;DHT22;59358;52.134;5.596;2023-02-23T05:52:05;8.10;99.90
19206;DHT22;59358;52.134;5.596;2023-02-23T05:54:33;8.10;99.90
19206;DHT22;59358;52.134;5.596;2023-02-23T05:56:59;8.10;99.90
19206;DHT22;59358;52.134;5.596;2023-02-23T05:59:28;8.10;99.90
19206;DHT22;59358;52.134;5.596;2023-02-23T06:01:55;8.00;99.90
19206;DHT22;59358;52.134;5.596;2023-02-23T06:04:22;8.10;99.90
19206;DHT22;59358;52.134;5.596;2023-02-23T06:06:49;8.00;99.90
19206;DHT22;59358;52.134;5.596;2023-02-23T06:09:15;8.10;99.90
19206;DHT22;59358;52.134;5.596;2023-02-23T06:11:42;8.10;99.90
19206;DHT22;59358;52.134;5.596;2023-02-23T06:14:09;8.20;99.90
19206;DHT22;59358;52.134;5.596;2023-02-23T06:16:38;8.30;99.90
19206;DHT22;59358;52.134;5.596;2023-02-23T06:19:04;8.30;99.90
19206;DHT22;59358;52.134;5.596;2023-02-23T06:21:31;8.30;99.90
19206;DHT22;59358;52.134;5.596;2023-02-23T06:23:58;8.40;99.90
19206;DHT22;59358;52.134;5.596;2023-02-23T06:26:25;8.30;99.90
19206;DHT22;59358;52.134;5.596;2023-02-23T06:28:52;8.40;99.90
19206;DHT22;59358;52.134;5.596;2023-02-23T06:31:19;8.30;99.90
19206;DHT22;59358;52.134;5.596;2023-02-23T06:33:48;8.30;99.90
19206;DHT22;59358;52.134;5.596;2023-02-23T06:36:15;8.20;99.90
19206;DHT22;59358;52.134;5.596;2023-02-23T06:38:42;8.10;99.90
19206;DHT22;59358;52.134;5.596;2023-02-23T06:41:10;8.20;99.90
19206;DHT22;59358;52.134;5.596;2023-02-23T06:43:37;8.10;99.90
19206;DHT22;59358;52.134;5.596;2023-02-23T06:46:04;8.10;99.90
19206;DHT22;59358;52.134;5.596;2023-02-23T06:48:31;8.10;99.90
19206;DHT22;59358;52.134;5.596;2023-02-23T06:50:59;8.20;99.90
19206;DHT22;59358;52.134;5.596;2023-02-23T06:53:26;8.20;99.90
19206;DHT22;59358;52.134;5.596;2023-02-23T06:55:54;8.20;99.90
19206;DHT22;59358;52.134;5.596;2023-02-23T06:58:21;8.10;99.90
19206;DHT22;59358;52.134;5.596;2023-02-23T07:00:48;8.10;99.90
19206;DHT22;59358;52.134;5.596;2023-02-23T07:03:15;8.10;99.90
19206;DHT22;59358;52.134;5.596;2023-02-23T07:05:43;8.10;99.90
19206;DHT22;59358;52.134;5.596;2023-02-23T07:08:11;8.20;99.90
19206;DHT22;59358;52.134;5.596;2023-02-23T07:10:38;8.20;99.90
19206;DHT22;59358;52.134;5.596;2023-02-23T07:13:05;8.30;99.90
19206;DHT22;59358;52.134;5.596;2023-02-23T07:15:34;8.30;99.90
19206;DHT22;59358;52.134;5.596;2023-02-23T07:18:01;8.30;99.90
19206;DHT22;59358;52.134;5.596;2023-02-23T07:20:28;8.40;99.90
19206;DHT22;59358;52.134;5.596;2023-02-23T07:22:55;8.40;99.90
19206;DHT22;59358;52.134;5.596;2023-02-23T07:25:24;8.40;99.90
19206;DHT22;59358;52.134;5.596;2023-02-23T07:27:51;8.40;99.90
19206;DHT22;59358;52.134;5.596;2023-02-23T07:30:21;8.40;99.90
19206;DHT22;59358;52.134;5.596;2023-02-23T07:33:17;8.40;99.90
19206;DHT22;59358;52.134;5.596;2023-02-23T07:35:57;8.50;99.90
19206;DHT22;59358;52.134;5.596;2023-02-23T07:38:26;8.40;99.90
19206;DHT22;59358;52.134;5.596;2023-02-23T07:41:03;8.30;99.90
19206;DHT22;59358;52.134;5.596;2023-02-23T07:43:40;8.30;99.90
19206;DHT22;59358;52.134;5.596;2023-02-23T07:46:15;8.30;99.90
19206;DHT22;59358;52.134;5.596;2023-02-23T07:48:55;8.40;99.90
19206;DHT22;59358;52.134;5.596;2023-02-23T07:51:38;8.40;99.90
19206;DHT22;59358;52.134;5.596;2023-02-23T07:54:19;8.50;99.90
19206;DHT22;59358;52.134;5.596;2023-02-23T07:56:55;8.40;99.90
19206;DHT22;59358;52.134;5.596;2023-02-23T07:59:27;8.30;99.90
19206;DHT22;59358;52.134;5.596;2023-02-23T08:02:28;8.30;99.90
19206;DHT22;59358;52.134;5.596;2023-02-23T08:05:00;8.50;99.90
19206;DHT22;59358;52.134;5.596;2023-02-23T08:07:35;8.60;99.90
19206;DHT22;59358;52.134;5.596;2023-02-23T08:10:28;8.60;99.90
19206;DHT22;59358;52.134;5.596;2023-02-23T08:13:01;8.60;99.90
19206;DHT22;59358;52.134;5.596;2023-02-23T08:15:31;8.70;99.90
19206;DHT22;59358;52.134;5.596;2023-02-23T08:18:11;8.70;99.90
19206;DHT22;59358;52.134;5.596;2023-02-23T08:21:04;8.80;99.90
19206;DHT22;59358;52.134;5.596;2023-02-23T08:23:33;8.70;99.90
19206;DHT22;59358;52.134;5.596;2023-02-23T08:26:03;8.70;99.90
19206;DHT22;59358;52.134;5.596;2023-02-23T08:28:31;8.80;99.90
19206;DHT22;59358;52.134;5.596;2023-02-23T08:30:59;8.90;99.90
19206;DHT22;59358;52.134;5.596;2023-02-23T08:36:41;8.80;99.90
19206;DHT22;59358;52.134;5.596;2023-02-23T08:40:45;8.70;99.90
19206;DHT22;59358;52.134;5.596;2023-02-23T08:44:55;8.70;99.90
19206;DHT22;59358;52.134;5.596;2023-02-23T08:53:19;9.10;99.90
19206;DHT22;59358;52.134;5.596;2023-02-23T08:55:47;9.10;99.90
19206;DHT22;59358;52.134;5.596;2023-02-23T08:58:14;9.20;99.90
19206;DHT22;59358;52.134;5.596;2023-02-23T09:00:41;9.30;99.90
19206;DHT22;59358;52.134;5.596;2023-02-23T09:03:08;9.30;99.90
19206;DHT22;59358;52.134;5.596;2023-02-23T09:05:37;9.30;99.90
19206;DHT22;59358;52.134;5.596;2023-02-23T09:08:04;9.40;99.90
19206;DHT22;59358;52.134;5.596;2023-02-23T09:10:31;9.30;99.90
19206;DHT22;59358;52.134;5.596;2023-02-23T09:12:58;9.30;99.90
19206;DHT22;59358;52.134;5.596;2023-02-23T09:15:25;9.40;99.90
19206;DHT22;59358;52.134;5.596;2023-02-23T09:17:52;9.30;99.90
19206;DHT22;59358;52.134;5.596;2023-02-23T09:20:19;9.40;99.90
19206;DHT22;59358;52.134;5.596;2023-02-23T09:22:52;9.40;99.90
19206;DHT22;59358;52.134;5.596;2023-02-23T09:25:20;9.40;99.90
19206;DHT22;59358;52.134;5.596;2023-02-23T09:27:48;9.50;99.90
19206;DHT22;59358;52.134;5.596;2023-02-23T09:30:15;9.50;99.90
19206;DHT22;59358;52.134;5.596;2023-02-23T09:32:45;9.50;99.90
19206;DHT22;59358;52.134;5.596;2023-02-23T09:35:12;9.50;99.90
19206;DHT22;59358;52.134;5.596;2023-02-23T09:37:42;9.40;99.90
19206;DHT22;59358;52.134;5.596;2023-02-23T09:40:16;9.60;99.90
19206;DHT22;59358;52.134;5.596;2023-02-23T09:42:48;9.50;99.90
19206;DHT22;59358;52.134;5.596;2023-02-23T09:45:28;9.60;99.90
19206;DHT22;59358;52.134;5.596;2023-02-23T09:48:05;9.60;99.90
19206;DHT22;59358;52.134;5.596;2023-02-23T09:50:36;9.60;99.90
19206;DHT22;59358;52.134;5.596;2023-02-23T09:53:08;9.70;99.90
19206;DHT22;59358;52.134;5.596;2023-02-23T09:55:41;9.70;99.90
19206;DHT22;59358;52.134;5.596;2023-02-23T09:58:18;9.70;99.90
19206;DHT22;59358;52.134;5.596;2023-02-23T10:00:54;9.60;99.90
19206;DHT22;59358;52.134;5.596;2023-02-23T10:03:30;9.50;99.90
19206;DHT22;59358;52.134;5.596;2023-02-23T10:06:00;9.50;99.90
19206;DHT22;59358;52.134;5.596;2023-02-23T10:08:41;9.40;99.90
19206;DHT22;59358;52.134;5.596;2023-02-23T10:11:21;9.50;99.90
19206;DHT22;59358;52.134;5.596;2023-02-23T10:16:44;9.50;99.90
19206;DHT22;59358;52.134;5.596;2023-02-23T10:19:20;9.40;99.90
19206;DHT22;59358;52.134;5.596;2023-02-23T10:21:53;9.50;99.90
19206;DHT22;59358;52.134;5.596;2023-02-23T10:24:24;9.60;99.90
19206;DHT22;59358;52.134;5.596;2023-02-23T10:26:57;9.50;99.90
19206;DHT22;59358;52.134;5.596;2023-02-23T10:29:28;9.50;99.90
19206;DHT22;59358;52.134;5.596;2023-02-23T10:31:59;9.50;99.90
19206;DHT22;59358;52.134;5.596;2023-02-23T10:34:28;9.50;99.90
19206;DHT22;59358;52.134;5.596;2023-02-23T10:36:58;9.60;99.90
19206;DHT22;59358;52.134;5.596;2023-02-23T10:39:26;9.60;99.90
19206;DHT22;59358;52.134;5.596;2023-02-23T10:41:56;9.60;99.90
19206;DHT22;59358;52.134;5.596;2023-02-23T10:44:24;9.50;99.90
19206;DHT22;59358;52.134;5.596;2023-02-23T10:46:55;9.40;99.90
19206;DHT22;59358;52.134;5.596;2023-02-23T10:49:27;9.50;99.90
19206;DHT22;59358;52.134;5.596;2023-02-23T10:51:55;9.50;99.90
19206;DHT22;59358;52.134;5.596;2023-02-23T10:54:39;9.50;99.90
19206;DHT22;59358;52.134;5.596;2023-02-23T10:57:11;9.60;99.90
19206;DHT22;59358;52.134;5.596;2023-02-23T10:59:58;9.60;99.90
19206;DHT22;59358;52.134;5.596;2023-02-23T11:02:28;9.70;99.90
19206;DHT22;59358;52.134;5.596;2023-02-23T11:04:58;9.70;99.90
19206;DHT22;59358;52.134;5.596;2023-02-23T11:07:26;9.60;99.90
19206;DHT22;59358;52.134;5.596;2023-02-23T11:09:54;9.60;99.90
19206;DHT22;59358;52.134;5.596;2023-02-23T11:12:24;9.70;99.90
19206;DHT22;59358;52.134;5.596;2023-02-23T11:14:55;9.60;99.90
19206;DHT22;59358;52.134;5.596;2023-02-23T11:17:26;9.50;99.90
19206;DHT22;59358;52.134;5.596;2023-02-23T11:20:02;9.60;99.90
19206;DHT22;59358;52.134;5.596;2023-02-23T11:22:31;9.50;99.90
19206;DHT22;59358;52.134;5.596;2023-02-23T11:25:02;9.50;99.90
19206;DHT22;59358;52.134;5.596;2023-02-23T11:27:32;9.60;99.90
19206;DHT22;59358;52.134;5.596;2023-02-23T11:30:03;9.80;99.90
19206;DHT22;59358;52.134;5.596;2023-02-23T11:32:33;9.90;99.90
19206;DHT22;59358;52.134;5.596;2023-02-23T11:35:13;9.90;99.90
19206;DHT22;59358;52.134;5.596;2023-02-23T11:37:51;9.70;99.90
19206;DHT22;59358;52.134;5.596;2023-02-23T11:40:21;9.50;99.90
19206;DHT22;59358;52.134;5.596;2023-02-23T11:42:55;9.50;99.90
19206;DHT22;59358;52.134;5.596;2023-02-23T11:45:24;9.50;99.90
19206;DHT22;59358;52.134;5.596;2023-02-23T11:47:54;9.30;99.90
19206;DHT22;59358;52.134;5.596;2023-02-23T11:50:26;9.30;99.90
19206;DHT22;59358;52.134;5.596;2023-02-23T11:53:02;9.20;99.90
19206;DHT22;59358;52.134;5.596;2023-02-23T11:55:31;9.20;99.90
19206;DHT22;59358;52.134;5.596;2023-02-23T11:58:20;9.10;99.90
19206;DHT22;59358;52.134;5.596;2023-02-23T12:00:55;9.10;99.90
19206;DHT22;59358;52.134;5.596;2023-02-23T12:03:23;9.00;99.90
19206;DHT22;59358;52.134;5.596;2023-02-23T12:05:53;9.00;99.90
19206;DHT22;59358;52.134;5.596;2023-02-23T12:08:35;9.10;99.90
19206;DHT22;59358;52.134;5.596;2023-02-23T12:11:05;9.10;99.90
19206;DHT22;59358;52.134;5.596;2023-02-23T12:13:41;9.20;99.90
19206;DHT22;59358;52.134;5.596;2023-02-23T12:16:13;9.20;99.90
19206;DHT22;59358;52.134;5.596;2023-02-23T12:18:46;9.30;99.90
19206;DHT22;59358;52.134;5.596;2023-02-23T12:21:24;9.20;99.90
19206;DHT22;59358;52.134;5.596;2023-02-23T12:24:02;9.20;99.90
19206;DHT22;59358;52.134;5.596;2023-02-23T12:26:33;9.20;99.90
19206;DHT22;59358;52.134;5.596;2023-02-23T12:29:17;9.10;99.90
19206;DHT22;59358;52.134;5.596;2023-02-23T12:31:48;9.20;99.90
19206;DHT22;59358;52.134;5.596;2023-02-23T12:34:21;9.20;99.90
19206;DHT22;59358;52.134;5.596;2023-02-23T12:36:54;9.30;99.90
19206;DHT22;59358;52.134;5.596;2023-02-23T12:39:26;9.20;99.90
19206;DHT22;59358;52.134;5.596;2023-02-23T12:42:00;9.30;99.90
19206;DHT22;59358;52.134;5.596;2023-02-23T12:44:40;9.40;99.90
19206;DHT22;59358;52.134;5.596;2023-02-23T12:47:15;9.50;99.90
19206;DHT22;59358;52.134;5.596;2023-02-23T12:49:51;9.60;99.90
19206;DHT22;59358;52.134;5.596;2023-02-23T12:52:21;9.80;99.90
19206;DHT22;59358;52.134;5.596;2023-02-23T12:54:50;9.90;99.90
19206;DHT22;59358;52.134;5.596;2023-02-23T12:57:25;9.90;99.90
19206;DHT22;59358;52.134;5.596;2023-02-23T13:05:56;9.90;99.90
19206;DHT22;59358;52.134;5.596;2023-02-23T13:08:38;9.90;99.90
19206;DHT22;59358;52.134;5.596;2023-02-23T13:11:14;9.90;99.90
19206;DHT22;59358;52.134;5.596;2023-02-23T13:13:47;9.80;99.90
19206;DHT22;59358;52.134;5.596;2023-02-23T13:16:20;9.80;99.90
19206;DHT22;59358;52.134;5.596;2023-02-23T13:18:58;9.80;99.90
19206;DHT22;59358;52.134;5.596;2023-02-23T13:21:32;9.80;99.90
19206;DHT22;59358;52.134;5.596;2023-02-23T13:24:03;9.80;99.90
19206;DHT22;59358;52.134;5.596;2023-02-23T13:26:38;9.80;99.90
19206;DHT22;59358;52.134;5.596;2023-02-23T13:29:19;9.80;99.90
19206;DHT22;59358;52.134;5.596;2023-02-23T13:31:51;9.70;99.90
19206;DHT22;59358;52.134;5.596;2023-02-23T13:34:23;9.70;99.90
19206;DHT22;59358;52.134;5.596;2023-02-23T13:36:51;9.70;99.90
19206;DHT22;59358;52.134;5.596;2023-02-23T13:39:42;9.70;99.90
19206;DHT22;59358;52.134;5.596;2023-02-23T13:42:22;9.70;99.90
19206;DHT22;59358;52.134;5.596;2023-02-23T13:44:57;9.60;99.90
19206;DHT22;59358;52.134;5.596;2023-02-23T13:47:35;9.60;99.90
19206;DHT22;59358;52.134;5.596;2023-02-23T13:50:13;9.50;99.90
19206;DHT22;59358;52.134;5.596;2023-02-23T13:52:43;9.60;99.90
19206;DHT22;59358;52.134;5.596;2023-02-23T13:55:34;9.80;99.90
19206;DHT22;59358;52.134;5.596;2023-02-23T13:58:04;10.10;99.90
19206;DHT22;59358;52.134;5.596;2023-02-23T14:00:32;10.10;99.90
19206;DHT22;59358;52.134;5.596;2023-02-23T14:03:03;10.10;99.90
19206;DHT22;59358;52.134;5.596;2023-02-23T14:05:41;10.10;99.90
19206;DHT22;59358;52.134;5.596;2023-02-23T14:08:20;10.00;99.90
19206;DHT22;59358;52.134;5.596;2023-02-23T14:10:49;9.90;99.90
19206;DHT22;59358;52.134;5.596;2023-02-23T14:13:27;9.90;99.90
19206;DHT22;59358;52.134;5.596;2023-02-23T14:16:13;9.80;99.90
19206;DHT22;59358;52.134;5.596;2023-02-23T14:19:03;9.70;99.90
19206;DHT22;59358;52.134;5.596;2023-02-23T14:21:34;9.60;99.90
19206;DHT22;59358;52.134;5.596;2023-02-23T14:24:13;9.50;99.90
19206;DHT22;59358;52.134;5.596;2023-02-23T14:26:44;9.40;99.90
19206;DHT22;59358;52.134;5.596;2023-02-23T14:29:28;9.40;99.90
19206;DHT22;59358;52.134;5.596;2023-02-23T14:32:02;9.30;99.90
19206;DHT22;59358;52.134;5.596;2023-02-23T14:34:49;9.30;99.90
19206;DHT22;59358;52.134;5.596;2023-02-23T14:37:30;9.20;99.90
19206;DHT22;59358;52.134;5.596;2023-02-23T14:40:08;9.30;99.90
19206;DHT22;59358;52.134;5.596;2023-02-23T14:42:38;9.30;99.90
19206;DHT22;59358;52.134;5.596;2023-02-23T14:45:17;9.40;99.90
19206;DHT22;59358;52.134;5.596;2023-02-23T14:47:46;9.30;99.90
19206;DHT22;59358;52.134;5.596;2023-02-23T14:50:26;9.40;99.90
19206;DHT22;59358;52.134;5.596;2023-02-23T14:52:55;9.50;99.90
19206;DHT22;59358;52.134;5.596;2023-02-23T14:55:24;9.40;99.90
19206;DHT22;59358;52.134;5.596;2023-02-23T14:57:51;9.30;99.90
19206;DHT22;59358;52.134;5.596;2023-02-23T15:00:21;9.30;99.90
19206;DHT22;59358;52.134;5.596;2023-02-23T15:02:57;9.30;99.90
19206;DHT22;59358;52.134;5.596;2023-02-23T15:05:27;9.30;99.90
19206;DHT22;59358;52.134;5.596;2023-02-23T15:07:58;9.40;99.90
19206;DHT22;59358;52.134;5.596;2023-02-23T15:10:30;9.40;99.90
19206;DHT22;59358;52.134;5.596;2023-02-23T15:12:58;9.40;99.90
19206;DHT22;59358;52.134;5.596;2023-02-23T15:15:26;9.30;99.90
19206;DHT22;59358;52.134;5.596;2023-02-23T15:17:58;9.30;99.90
19206;DHT22;59358;52.134;5.596;2023-02-23T15:20:31;9.30;99.90
19206;DHT22;59358;52.134;5.596;2023-02-23T15:23:01;9.30;99.90
19206;DHT22;59358;52.134;5.596;2023-02-23T15:25:35;9.30;99.90
19206;DHT22;59358;52.134;5.596;2023-02-23T15:28:19;9.30;99.90
19206;DHT22;59358;52.134;5.596;2023-02-23T15:30:48;9.30;99.90
19206;DHT22;59358;52.134;5.596;2023-02-23T15:33:17;9.30;99.90
19206;DHT22;59358;52.134;5.596;2023-02-23T15:35:53;9.20;99.90
19206;DHT22;59358;52.134;5.596;2023-02-23T15:38:23;9.20;99.90
19206;DHT22;59358;52.134;5.596;2023-02-23T15:40:57;9.20;99.90
19206;DHT22;59358;52.134;5.596;2023-02-23T15:43:25;9.20;99.90
19206;DHT22;59358;52.134;5.596;2023-02-23T15:45:55;9.20;99.90
19206;DHT22;59358;52.134;5.596;2023-02-23T15:48:27;9.10;99.90
19206;DHT22;59358;52.134;5.596;2023-02-23T15:50:56;9.20;99.90
19206;DHT22;59358;52.134;5.596;2023-02-23T15:53:27;9.20;99.90
19206;DHT22;59358;52.134;5.596;2023-02-23T15:55:56;9.00;99.90
19206;DHT22;59358;52.134;5.596;2023-02-23T15:58:27;8.90;99.90
19206;DHT22;59358;52.134;5.596;2023-02-23T16:00:56;8.80;99.90
19206;DHT22;59358;52.134;5.596;2023-02-23T16:03:27;8.60;99.90
19206;DHT22;59358;52.134;5.596;2023-02-23T16:06:01;8.60;99.90
19206;DHT22;59358;52.134;5.596;2023-02-23T16:08:29;8.50;99.90
19206;DHT22;59358;52.134;5.596;2023-02-23T16:11:03;8.40;99.90
19206;DHT22;59358;52.134;5.596;2023-02-23T16:13:36;8.30;99.90
19206;DHT22;59358;52.134;5.596;2023-02-23T16:16:04;8.30;99.90
19206;DHT22;59358;52.134;5.596;2023-02-23T16:18:38;8.20;99.90
19206;DHT22;59358;52.134;5.596;2023-02-23T16:21:10;8.20;99.90
19206;DHT22;59358;52.134;5.596;2023-02-23T16:23:43;8.10;99.90
19206;DHT22;59358;52.134;5.596;2023-02-23T16:26:17;8.00;99.90
19206;DHT22;59358;52.134;5.596;2023-02-23T16:28:53;7.90;99.90
19206;DHT22;59358;52.134;5.596;2023-02-23T16:31:23;7.80;99.90
19206;DHT22;59358;52.134;5.596;2023-02-23T16:33:54;7.80;99.90
19206;DHT22;59358;52.134;5.596;2023-02-23T16:36:32;7.70;99.90
19206;DHT22;59358;52.134;5.596;2023-02-23T16:39:01;7.70;99.90
19206;DHT22;59358;52.134;5.596;2023-02-23T16:41:32;7.70;99.90
19206;DHT22;59358;52.134;5.596;2023-02-23T16:44:00;7.70;99.90
19206;DHT22;59358;52.134;5.596;2023-02-23T16:46:30;7.70;99.90
19206;DHT22;59358;52.134;5.596;2023-02-23T16:48:57;7.70;99.90
19206;DHT22;59358;52.134;5.596;2023-02-23T16:51:31;7.70;99.90